Time;durP1;ratioP1;P1;durP2;ratioP2;P2;SDS_P1;SDS_P2;PMS_P1;PMS_P2;Temp;Humidity;BMP_temperature;BMP_pressure;BME280_temperature;BME280_humidity;BME280_pressure;Samples;Min_cycle;Max_cycle;Signal;HPM_P1;HPM_P2
2022/08/11 00:01:18;;;;;;;4.30;2.93;;;20.50;44.20;;;;;;5073375;28;20864;-50
2022/08/11 00:03:47;;;;;;;2.80;2.60;;;20.40;44.00;;;;;;5074218;28;20413;-48
2022/08/11 00:06:13;;;;;;;3.40;3.10;;;20.40;44.20;;;;;;5073715;28;20428;-50
2022/08/11 00:08:40;;;;;;;3.27;2.97;;;20.30;44.20;;;;;;5073684;28;20423;-49
2022/08/11 00:11:08;;;;;;;3.60;2.90;;;20.30;44.30;;;;;;5073135;28;20839;-48
2022/08/11 00:13:44;;;;;;;3.50;3.20;;;20.30;44.30;;;;;;5058165;28;20727;-47
2022/08/11 00:16:20;;;;;;;3.20;2.80;;;20.20;44.30;;;;;;5058073;28;20570;-50
2022/08/11 00:18:49;;;;;;;3.50;2.73;;;20.30;44.60;;;;;;5074539;28;20427;-49
2022/08/11 00:21:15;;;;;;;2.63;2.40;;;20.30;44.30;;;;;;5073658;28;20717;-48
2022/08/11 00:24:01;;;;;;;3.20;2.90;;;20.30;44.30;;;;;;5074441;28;20423;-47
2022/08/11 00:26:28;;;;;;;4.73;2.97;;;20.30;44.40;;;;;;5058682;28;20432;-47
2022/08/11 00:28:54;;;;;;;3.50;3.20;;;20.30;44.50;;;;;;5074350;28;20420;-48
2022/08/11 00:31:25;;;;;;;3.17;2.70;;;20.30;45.00;;;;;;5073584;28;20542;-49
2022/08/11 00:33:52;;;;;;;3.53;3.17;;;20.30;44.60;;;;;;5073839;28;20425;-50
2022/08/11 00:36:19;;;;;;;4.60;3.00;;;20.30;44.40;;;;;;5058049;28;20500;-49
2022/08/11 00:38:49;;;;;;;2.83;2.60;;;20.30;44.60;;;;;;5057692;28;20469;-52
2022/08/11 00:41:39;;;;;;;4.80;2.80;;;20.30;45.10;;;;;;5057936;28;20436;-52
2022/08/11 00:44:36;;;;;;;4.70;2.90;;;20.20;44.80;;;;;;5057816;28;20416;-50
2022/08/11 00:47:10;;;;;;;4.30;2.60;;;20.20;44.90;;;;;;5058382;28;20725;-48
2022/08/11 00:49:45;;;;;;;3.03;2.73;;;20.20;45.00;;;;;;5058147;28;20497;-50
2022/08/11 00:52:55;;;;;;;3.30;3.00;;;20.20;44.60;;;;;;5074255;28;20436;-53
2022/08/11 00:55:46;;;;;;;3.60;3.20;;;20.20;45.00;;;;;;5016618;28;20508;-52
2022/08/11 00:58:32;;;;;;;5.53;3.30;;;20.10;44.70;;;;;;5057183;28;20423;-48
2022/08/11 01:01:16;;;;;;;3.10;2.80;;;20.10;44.80;;;;;;5058367;28;20430;-50
2022/08/11 01:04:19;;;;;;;3.20;2.90;;;20.10;44.90;;;;;;5058315;28;20413;-50
2022/08/11 01:07:04;;;;;;;3.13;2.77;;;20.00;44.90;;;;;;5058532;28;20432;-54
2022/08/11 01:09:33;;;;;;;3.93;3.03;;;20.00;45.10;;;;;;5057605;28;20424;-51
2022/08/11 01:12:04;;;;;;;2.87;2.67;;;20.00;45.20;;;;;;5057427;28;20876;-50
2022/08/11 01:15:14;;;;;;;3.80;3.37;;;20.00;45.20;;;;;;5057203;28;20453;-51
2022/08/11 01:17:48;;;;;;;3.30;3.00;;;20.00;45.30;;;;;;5073705;28;20433;-48
2022/08/11 01:20:47;;;;;;;5.30;3.03;;;19.90;45.40;;;;;;5058487;28;20418;-48
2022/08/11 01:23:56;;;;;;;3.57;3.03;;;19.90;45.30;;;;;;5058345;28;20413;-52
2022/08/11 01:26:41;;;;;;;3.87;3.27;;;19.90;45.40;;;;;;5057481;28;20414;-50
2022/08/11 01:29:30;;;;;;;3.67;3.30;;;19.90;45.60;;;;;;5057846;28;20466;-48
2022/08/11 01:32:02;;;;;;;5.70;3.10;;;19.90;45.80;;;;;;5057643;28;20489;-49
2022/08/11 01:34:55;;;;;;;2.93;2.70;;;19.90;45.60;;;;;;5057397;28;20502;-53
2022/08/11 01:37:21;;;;;;;3.50;3.20;;;19.80;45.60;;;;;;5057902;28;20423;-50
2022/08/11 01:39:53;;;;;;;4.10;3.30;;;19.80;45.90;;;;;;5060368;28;20409;-50
2022/08/11 01:45:47;;;;;;;3.20;2.90;;;19.80;46.10;;;;;;5077548;28;20413;-49
2022/08/11 01:48:19;;;;;;;3.30;2.97;;;19.70;46.20;;;;;;5077978;28;20699;-49
2022/08/11 01:51:00;;;;;;;3.70;2.97;;;19.70;46.00;;;;;;5077502;28;20684;-50
2022/08/11 01:53:28;;;;;;;3.17;2.87;;;19.70;45.90;;;;;;5077544;28;20550;-50
2022/08/11 01:56:04;;;;;;;3.80;3.03;;;19.60;46.30;;;;;;5077370;28;20473;-49
2022/08/11 01:59:02;;;;;;;3.70;3.07;;;19.60;46.30;;;;;;5078305;28;20450;-48
2022/08/11 02:01:57;;;;;;;3.50;3.20;;;19.60;46.50;;;;;;5077946;28;20436;-47
2022/08/11 02:04:30;;;;;;;3.63;3.33;;;19.60;46.80;;;;;;5077973;28;20417;-47
2022/08/11 02:07:20;;;;;;;5.03;3.10;;;19.60;46.60;;;;;;5077868;28;20427;-48
2022/08/11 02:13:17;;;;;;;3.60;3.30;;;19.60;46.90;;;;;;5076267;28;20413;-47
2022/08/11 02:15:50;;;;;;;3.10;2.83;;;19.50;46.50;;;;;;5075978;28;20484;-50
2022/08/11 02:18:21;;;;;;;4.90;3.10;;;19.50;46.80;;;;;;5076225;28;20495;-48
2022/08/11 02:23:58;;;;;;;3.83;3.50;;;19.50;47.10;;;;;;5076651;28;20447;-48
2022/08/11 02:26:45;;;;;;;5.73;3.27;;;19.40;47.00;;;;;;5063210;28;20422;-51
2022/08/11 02:29:20;;;;;;;2.97;2.67;;;19.40;47.20;;;;;;5079646;28;20623;-49
2022/08/11 02:34:54;;;;;;;3.53;3.23;;;19.50;47.40;;;;;;5079448;28;20414;-51
2022/08/11 02:37:32;;;;;;;3.50;3.20;;;19.40;47.30;;;;;;5080772;28;20412;-50
2022/08/11 02:39:57;;;;;;;3.03;2.83;;;19.40;47.40;;;;;;5080727;28;20423;-48
2022/08/11 02:42:32;;;;;;;3.37;3.07;;;19.40;47.40;;;;;;5080398;28;20438;-49
2022/08/11 02:45:34;;;;;;;6.80;2.90;;;19.40;47.40;;;;;;5081120;28;20176;-52
2022/08/11 02:51:23;;;;;;;3.57;2.90;;;19.40;47.40;;;;;;5079488;28;20421;-49
2022/08/11 02:54:07;;;;;;;3.70;3.40;;;19.40;47.60;;;;;;5080377;28;20468;-48
2022/08/11 02:56:37;;;;;;;4.10;3.80;;;19.40;47.70;;;;;;5080151;28;20463;-49
2022/08/11 03:02:22;;;;;;;3.87;3.47;;;19.40;47.80;;;;;;5079506;28;20431;-49
2022/08/11 03:04:59;;;;;;;3.40;3.10;;;19.30;47.50;;;;;;5080260;28;20453;-49
2022/08/11 03:07:42;;;;;;;3.40;3.10;;;19.30;47.90;;;;;;5066464;28;20714;-51
2022/08/11 03:10:30;;;;;;;3.50;3.20;;;19.30;48.20;;;;;;5079411;28;20426;-48
2022/08/11 03:16:45;;;;;;;4.27;3.60;;;19.20;48.30;;;;;;5078754;28;20466;-49
2022/08/11 03:19:24;;;;;;;3.60;3.30;;;19.20;48.40;;;;;;5078246;28;20417;-48
2022/08/11 03:22:09;;;;;;;3.43;3.13;;;19.20;48.40;;;;;;5078338;28;20873;-50
2022/08/11 03:24:57;;;;;;;4.27;3.80;;;19.20;48.40;;;;;;5079208;28;20404;-53
2022/08/11 03:27:33;;;;;;;3.63;3.33;;;19.20;48.50;;;;;;5078968;28;20411;-48
2022/08/11 03:30:20;;;;;;;3.80;3.50;;;19.20;48.40;;;;;;5077918;28;20488;-51
2022/08/11 03:34:00;;;;;;;4.17;3.77;;;19.20;48.40;;;;;;5078985;28;20416;-49
2022/08/11 03:35:40;;;;;;;4.37;4.00;;;19.20;48.50;;;;;;5078989;28;20574;-48
2022/08/11 03:38:11;;;;;;;5.90;3.97;;;19.10;48.90;;;;;;5078326;28;20412;-50
2022/08/11 03:44:08;;;;;;;4.00;2.87;;;19.00;48.60;;;;;;5079135;28;20587;-51
2022/08/11 03:46:44;;;;;;;4.27;3.60;;;19.10;48.70;;;;;;5078471;28;20891;-50
2022/08/11 03:49:24;;;;;;;4.07;3.63;;;19.00;48.60;;;;;;5078998;28;20788;-51
2022/08/11 03:52:14;;;;;;;3.97;3.67;;;19.00;48.70;;;;;;5078587;28;20416;-48
2022/08/11 03:54:46;;;;;;;4.43;3.70;;;19.00;48.90;;;;;;5078379;28;20865;-50
2022/08/11 03:57:59;;;;;;;4.40;3.70;;;19.00;48.90;;;;;;5078594;28;20463;-47
2022/08/11 04:01:10;;;;;;;3.97;3.67;;;19.00;49.00;;;;;;5026398;28;20459;-49
2022/08/11 04:03:42;;;;;;;4.97;3.60;;;19.00;48.90;;;;;;5059616;28;20810;-49
2022/08/11 04:06:21;;;;;;;4.73;3.87;;;19.10;49.00;;;;;;5078007;28;20432;-49
2022/08/11 04:09:15;;;;;;;4.10;3.70;;;19.00;49.00;;;;;;5076527;28;20434;-47
2022/08/11 04:11:41;;;;;;;3.60;3.30;;;19.00;49.00;;;;;;5020024;28;20431;-48
2022/08/11 04:17:59;;;;;;;4.37;3.97;;;19.10;49.20;;;;;;5075563;28;20546;-49
2022/08/11 04:20:56;;;;;;;4.10;3.80;;;19.10;49.30;;;;;;5056067;28;20732;-47
2022/08/11 04:23:22;;;;;;;4.20;3.90;;;19.10;49.40;;;;;;5067771;28;20435;-50
2022/08/11 04:26:25;;;;;;;4.03;3.63;;;19.10;49.50;;;;;;5076459;28;20724;-49
2022/08/11 04:29:23;;;;;;;3.90;3.60;;;19.10;49.60;;;;;;5075014;28;20208;-49
2022/08/11 04:32:39;;;;;;;4.47;3.93;;;19.10;49.60;;;;;;5077594;28;20556;-52
2022/08/11 04:35:31;;;;;;;4.30;3.90;;;19.20;49.70;;;;;;5059790;28;20533;-53
2022/08/11 04:38:27;;;;;;;4.90;4.40;;;19.20;49.90;;;;;;5077726;28;20426;-51
2022/08/11 04:41:17;;;;;;;3.67;3.37;;;19.20;50.00;;;;;;5077552;28;20440;-52
2022/08/11 04:44:20;;;;;;;3.43;3.13;;;19.20;49.90;;;;;;5077129;28;20520;-53
2022/08/11 04:46:58;;;;;;;4.40;3.63;;;19.20;50.10;;;;;;5076702;28;20713;-52
2022/08/11 05:02:42;;;;;;;4.13;3.77;;;19.40;50.30;;;;;;5064321;28;20511;-52
2022/08/11 05:05:34;;;;;;;3.97;3.67;;;19.40;50.30;;;;;;5076189;28;20440;-55
2022/08/11 05:08:15;;;;;;;4.23;3.80;;;19.40;50.30;;;;;;5076711;28;20499;-50
2022/08/11 05:10:52;;;;;;;3.90;3.50;;;19.40;50.30;;;;;;5063867;28;20714;-54
2022/08/11 05:36:54;;;;;;;4.20;3.80;;;19.80;49.90;;;;;;5075314;28;20482;-54
2022/08/11 05:56:18;;;;;;;3.80;3.40;;;20.10;49.30;;;;;;5075664;28;20622;-51
2022/08/11 05:58:48;;;;;;;3.90;3.60;;;20.20;49.40;;;;;;5078324;28;20427;-50
2022/08/11 06:01:26;;;;;;;4.47;4.17;;;20.30;49.40;;;;;;5080703;28;20423;-52
2022/08/11 06:04:13;;;;;;;3.90;3.60;;;20.30;49.40;;;;;;5078440;28;20499;-52
2022/08/11 06:06:55;;;;;;;4.40;4.00;;;20.40;49.30;;;;;;5079510;28;20847;-50
2022/08/11 06:09:27;;;;;;;5.57;4.60;;;20.50;49.40;;;;;;5078463;28;20430;-50
2022/08/11 06:11:56;;;;;;;4.47;4.07;;;20.50;49.20;;;;;;5080103;28;20503;-51
2022/08/11 06:14:23;;;;;;;4.67;4.00;;;20.50;49.10;;;;;;5080419;28;20435;-50
2022/08/11 06:16:50;;;;;;;4.17;3.77;;;20.60;49.20;;;;;;5078385;28;20474;-54
2022/08/11 06:19:16;;;;;;;6.40;3.93;;;20.60;49.20;;;;;;5080227;28;20430;-52
2022/08/11 06:21:47;;;;;;;4.33;3.63;;;20.70;49.10;;;;;;5078773;28;20441;-54
2022/08/11 06:24:14;;;;;;;4.77;3.70;;;20.80;48.90;;;;;;5077655;28;20443;-52
2022/08/11 06:26:40;;;;;;;5.03;4.53;;;20.90;49.00;;;;;;5078415;28;20438;-50
2022/08/11 06:29:08;;;;;;;4.50;4.10;;;20.90;48.90;;;;;;5076369;28;20834;-51
2022/08/11 06:31:34;;;;;;;5.57;4.57;;;21.00;48.60;;;;;;5077472;28;20450;-53
2022/08/11 06:34:14;;;;;;;7.97;4.43;;;21.10;48.60;;;;;;5077259;28;20443;-52
2022/08/11 06:36:53;;;;;;;4.30;3.90;;;21.30;48.60;;;;;;5078247;28;20212;-50
2022/08/11 06:39:39;;;;;;;4.70;4.10;;;21.50;48.60;;;;;;5058197;28;20513;-52
2022/08/11 06:42:40;;;;;;;9.37;4.67;;;21.60;48.40;;;;;;5058578;28;20450;-53
2022/08/11 06:45:23;;;;;;;4.40;3.97;;;21.80;48.10;;;;;;5006382;28;20793;-51
2022/08/11 06:47:49;;;;;;;6.23;3.83;;;21.90;48.10;;;;;;5078000;28;20510;-52
2022/08/11 06:53:08;;;;;;;4.87;4.47;;;22.20;47.70;;;;;;5078909;28;20214;-52
2022/08/11 07:01:12;;;;;;;4.57;3.80;;;22.60;47.20;;;;;;5077345;28;20474;-51
2022/08/11 07:03:42;;;;;;;4.30;3.90;;;22.70;47.10;;;;;;5077376;28;20457;-51
2022/08/11 07:06:18;;;;;;;4.53;3.90;;;22.90;47.00;;;;;;5076978;28;20434;-52
2022/08/11 07:17:41;;;;;;;6.70;5.03;;;23.50;46.40;;;;;;5057850;28;20571;-54
2022/08/11 07:31:34;;;;;;;5.30;4.43;;;24.40;45.10;;;;;;5077261;28;20438;-53
2022/08/11 07:34:20;;;;;;;4.63;4.20;;;24.60;45.20;;;;;;5076925;28;20458;-52
2022/08/11 07:36:55;;;;;;;6.20;4.63;;;24.80;44.90;;;;;;5077426;28;20541;-49
2022/08/11 07:39:25;;;;;;;6.20;5.07;;;25.00;44.80;;;;;;5078069;28;20413;-51
2022/08/11 07:41:53;;;;;;;4.80;4.30;;;25.10;44.10;;;;;;5076389;28;20427;-52
2022/08/11 07:44:20;;;;;;;9.93;4.73;;;25.20;44.00;;;;;;5077094;28;20447;-55
2022/08/11 07:52:32;;;;;;;6.47;4.80;;;25.60;42.60;;;;;;5075466;28;20465;-54
2022/08/11 07:55:07;;;;;;;5.23;4.83;;;25.40;42.50;;;;;;5074642;28;20427;-53
2022/08/11 08:19:35;;;;;;;4.90;4.50;;;25.10;42.20;;;;;;5075033;28;20840;-40
2022/08/11 08:22:01;;;;;;;5.13;4.57;;;25.20;41.90;;;;;;5075649;28;20482;-41
2022/08/11 08:24:27;;;;;;;5.63;3.70;;;25.20;41.50;;;;;;5075623;28;20809;-41
2022/08/11 08:27:00;;;;;;;4.93;4.33;;;25.30;41.90;;;;;;5075603;28;20436;-41
2022/08/11 08:32:18;;;;;;;4.70;4.30;;;26.10;42.30;;;;;;5076821;28;20458;-41
2022/08/11 08:34:44;;;;;;;4.40;4.00;;;26.50;40.40;;;;;;5074575;28;20481;-40
2022/08/11 08:37:11;;;;;;;7.87;4.27;;;26.70;40.40;;;;;;5073754;28;20468;-39
2022/08/11 08:39:37;;;;;;;4.97;4.17;;;26.90;40.20;;;;;;5075363;28;20721;-42
2022/08/11 08:42:10;;;;;;;4.33;3.93;;;26.90;39.90;;;;;;5075983;28;20477;-40
2022/08/11 08:44:41;;;;;;;4.50;4.10;;;26.90;39.80;;;;;;5074610;28;20826;-41
2022/08/11 08:47:08;;;;;;;6.00;4.80;;;27.10;40.00;;;;;;5075965;28;20526;-42
2022/08/11 08:49:40;;;;;;;4.40;4.00;;;27.40;39.00;;;;;;5074894;28;20452;-40
2022/08/11 08:52:08;;;;;;;5.20;4.70;;;27.60;39.10;;;;;;5074331;28;20415;-40
2022/08/11 08:54:38;;;;;;;5.17;4.10;;;28.00;39.60;;;;;;5074370;28;20649;-42
2022/08/11 08:57:05;;;;;;;4.53;4.13;;;28.30;39.00;;;;;;5073612;28;20459;-41
2022/08/11 08:59:38;;;;;;;6.73;3.80;;;28.70;38.50;;;;;;5074981;28;20467;-40
2022/08/11 09:02:05;;;;;;;4.87;3.43;;;29.00;37.50;;;;;;5073464;28;20432;-41
2022/08/11 09:04:32;;;;;;;4.70;4.17;;;29.10;37.30;;;;;;5073529;28;20421;-43
2022/08/11 09:07:00;;;;;;;4.93;4.10;;;29.20;36.80;;;;;;5072894;28;20417;-39
2022/08/11 09:09:26;;;;;;;5.20;4.80;;;29.30;37.30;;;;;;5074210;28;20849;-41
2022/08/11 09:11:52;;;;;;;4.37;3.87;;;29.30;36.40;;;;;;5075034;28;20881;-42
2022/08/11 09:14:21;;;;;;;4.27;3.60;;;28.90;36.10;;;;;;5075499;28;20559;-41
2022/08/11 09:16:47;;;;;;;4.40;4.00;;;28.80;36.80;;;;;;5074748;28;20462;-41
2022/08/11 09:19:17;;;;;;;4.00;3.70;;;28.80;36.60;;;;;;5060654;28;20555;-44
2022/08/11 09:26:58;;;;;;;4.43;4.03;;;28.80;35.40;;;;;;5056965;28;20423;-43
2022/08/11 09:27:20;;;;;;;4.17;3.77;;;28.60;36.60;;;;;;5077068;28;20910;-42
2022/08/11 09:29:46;;;;;;;5.80;4.10;;;28.60;36.30;;;;;;5075460;28;20596;-42
2022/08/11 09:32:13;;;;;;;3.93;3.63;;;28.70;36.00;;;;;;5072484;28;20503;-42
2022/08/11 09:34:39;;;;;;;5.20;4.30;;;28.70;36.40;;;;;;5073482;28;20432;-42
2022/08/11 09:45:19;;;;;;;3.70;3.40;;;30.10;36.60;;;;;;5076601;28;20392;-43
2022/08/11 09:47:45;;;;;;;4.53;3.50;;;30.90;35.20;;;;;;5075747;28;20395;-42
2022/08/11 09:50:14;;;;;;;3.97;3.67;;;30.90;34.60;;;;;;5076406;28;20391;-42
2022/08/11 09:52:40;;;;;;;4.00;3.70;;;31.00;34.00;;;;;;5074696;28;20427;-41
2022/08/11 09:55:10;;;;;;;4.03;3.63;;;30.60;33.40;;;;;;5074868;28;20398;-40
2022/08/11 10:00:32;;;;;;;4.30;3.70;;;29.80;34.20;;;;;;5077314;28;20463;-43
2022/08/11 10:03:01;;;;;;;4.30;3.70;;;29.80;34.80;;;;;;5059318;28;20430;-41
2022/08/11 10:08:13;;;;;;;5.70;3.90;;;30.60;34.90;;;;;;5073971;28;20729;-41
2022/08/11 10:10:39;;;;;;;3.97;3.67;;;31.40;34.90;;;;;;5075537;28;20415;-40
2022/08/11 10:13:09;;;;;;;5.77;4.30;;;32.10;34.20;;;;;;5076280;28;20750;-42
2022/08/11 10:15:38;;;;;;;6.63;3.87;;;32.40;32.60;;;;;;5074907;28;20872;-42
2022/08/11 10:21:12;;;;;;;4.00;3.70;;;31.40;33.10;;;;;;5073167;28;20391;-44
2022/08/11 10:34:39;;;;;;;3.60;3.30;;;32.30;31.70;;;;;;5075933;28;20441;-42
2022/08/11 10:37:05;;;;;;;3.83;3.53;;;31.50;32.00;;;;;;5075330;28;20528;-40
2022/08/11 10:39:31;;;;;;;4.50;4.10;;;31.00;31.90;;;;;;5075218;28;20509;-40
2022/08/11 10:44:45;;;;;;;3.90;3.50;;;31.20;32.50;;;;;;5073158;28;20451;-41
2022/08/11 11:00:59;;;;;;;3.77;3.37;;;33.30;31.20;;;;;;5077267;28;20843;-43
2022/08/11 11:03:27;;;;;;;6.30;3.50;;;33.70;30.90;;;;;;5076488;28;20813;-41
2022/08/11 11:05:59;;;;;;;4.73;3.87;;;33.90;30.10;;;;;;5076900;28;20416;-41
2022/08/11 11:11:14;;;;;;;5.07;3.47;;;34.80;28.90;;;;;;5059944;28;20411;-42
2022/08/11 11:19:23;;;;;;;3.67;3.17;;;34.10;29.40;;;;;;5077907;28;20432;-43
2022/08/11 11:21:52;;;;;;;4.93;3.10;;;34.40;29.50;;;;;;5078234;28;20383;-42
2022/08/11 11:24:36;;;;;;;3.43;3.13;;;34.50;29.10;;;;;;5077285;28;20395;-41
2022/08/11 11:27:22;;;;;;;4.40;3.67;;;34.70;29.10;;;;;;5076756;28;20376;-42
2022/08/11 11:30:04;;;;;;;3.50;3.20;;;35.00;29.00;;;;;;5077525;28;20493;-40
2022/08/11 11:32:55;;;;;;;4.57;3.47;;;35.10;28.60;;;;;;5078472;28;20445;-43
2022/08/11 11:35:35;;;;;;;3.17;2.97;;;35.70;28.10;;;;;;5077967;28;20386;-41
2022/08/11 11:38:01;;;;;;;5.30;3.60;;;36.00;28.40;;;;;;5076392;28;20424;-42
2022/08/11 11:40:27;;;;;;;3.70;3.40;;;36.00;27.60;;;;;;5075972;28;20422;-40
2022/08/11 11:42:57;;;;;;;4.60;3.40;;;35.00;28.40;;;;;;5078274;28;20435;-40
2022/08/11 11:45:25;;;;;;;3.47;3.17;;;35.00;29.10;;;;;;5075383;28;20752;-43
2022/08/11 11:47:54;;;;;;;3.57;3.27;;;35.50;29.40;;;;;;5075723;28;20728;-41
2022/08/11 11:50:27;;;;;;;3.13;2.80;;;36.10;28.10;;;;;;5077108;28;20419;-41
2022/08/11 11:52:54;;;;;;;3.57;3.10;;;35.60;27.60;;;;;;5074163;28;20444;-41
2022/08/11 11:55:23;;;;;;;5.67;3.20;;;35.10;28.10;;;;;;5076108;28;20687;-42
2022/08/11 12:03:19;;;;;;;4.10;3.50;;;34.50;28.60;;;;;;5077035;28;20426;-40
2022/08/11 12:05:45;;;;;;;3.40;3.10;;;34.90;29.20;;;;;;5075237;28;20409;-40
2022/08/11 12:08:14;;;;;;;5.23;3.23;;;35.20;27.90;;;;;;5076461;28;20435;-40
2022/08/11 12:14:02;;;;;;;3.83;3.53;;;34.40;29.00;;;;;;5041609;28;20483;-44
2022/08/11 12:16:28;;;;;;;8.00;3.83;;;34.90;28.50;;;;;;5077464;28;20473;-43
2022/08/11 12:19:03;;;;;;;4.00;3.00;;;35.10;27.70;;;;;;5076887;28;20407;-42
2022/08/11 12:21:29;;;;;;;4.03;3.00;;;35.60;28.00;;;;;;5077999;28;20171;-42
2022/08/11 12:29:15;;;;;;;3.53;3.20;;;37.90;27.10;;;;;;5075593;28;20484;-42
2022/08/11 12:31:41;;;;;;;3.00;2.80;;;38.30;26.80;;;;;;5076330;28;20456;-41
2022/08/11 12:34:13;;;;;;;3.13;2.93;;;38.90;27.30;;;;;;5075959;28;20438;-43
2022/08/11 12:36:40;;;;;;;3.37;3.07;;;39.40;26.50;;;;;;5075460;28;20461;-43
2022/08/11 12:39:09;;;;;;;3.20;3.00;;;39.60;25.20;;;;;;5074608;28;20431;-41
2022/08/11 12:47:10;;;;;;;3.80;3.33;;;38.50;26.30;;;;;;5066940;28;20422;-43
2022/08/11 12:52:26;;;;;;;4.03;3.33;;;38.40;25.40;;;;;;5076102;28;20428;-41
2022/08/11 12:54:59;;;;;;;3.50;3.20;;;36.60;26.10;;;;;;5055495;28;20749;-42
2022/08/11 13:05:59;;;;;;;3.43;3.13;;;38.50;26.20;;;;;;5076722;28;20432;-42
2022/08/11 13:08:26;;;;;;;4.80;3.10;;;39.00;26.10;;;;;;5075073;28;20721;-42
2022/08/11 13:13:39;;;;;;;3.37;3.00;;;36.90;26.30;;;;;;5064400;28;20465;-41
2022/08/11 13:16:05;;;;;;;3.27;2.97;;;36.10;26.50;;;;;;5074135;28;20463;-41
2022/08/11 13:18:32;;;;;;;3.70;3.10;;;35.50;26.90;;;;;;5074108;28;20845;-42
2022/08/11 13:20:58;;;;;;;4.03;3.50;;;35.70;27.50;;;;;;5068446;28;20494;-42
2022/08/11 13:23:25;;;;;;;3.37;3.07;;;36.50;27.50;;;;;;5076130;28;20401;-42
2022/08/11 13:25:53;;;;;;;3.23;2.93;;;37.50;27.10;;;;;;5074812;28;20184;-43
2022/08/11 13:28:20;;;;;;;3.40;3.13;;;38.40;26.50;;;;;;5074136;28;20432;-43
2022/08/11 13:33:30;;;;;;;3.37;3.07;;;39.30;26.40;;;;;;5074498;28;20481;-42
2022/08/11 13:35:55;;;;;;;4.20;3.80;;;39.90;25.70;;;;;;5065075;28;20890;-42
2022/08/11 13:38:23;;;;;;;3.20;3.00;;;40.40;25.40;;;;;;5046716;28;20187;-43
2022/08/11 13:40:51;;;;;;;3.47;3.17;;;40.10;24.70;;;;;;5069449;28;20184;-41
2022/08/11 13:43:19;;;;;;;3.20;2.90;;;39.20;24.90;;;;;;5055407;28;20504;-41
2022/08/11 13:45:46;;;;;;;3.70;3.23;;;38.60;25.90;;;;;;5058067;28;20749;-41
2022/08/11 13:48:14;;;;;;;3.63;3.10;;;38.20;25.10;;;;;;5057995;28;20469;-43
2022/08/11 13:53:25;;;;;;;3.67;3.30;;;36.10;26.00;;;;;;5068449;28;20709;-40
2022/08/11 13:55:52;;;;;;;4.73;3.20;;;35.10;27.00;;;;;;5075530;28;20501;-42
2022/08/11 13:58:19;;;;;;;3.30;3.10;;;35.40;27.80;;;;;;5075954;28;20863;-42
2022/08/11 14:00:48;;;;;;;8.30;3.37;;;35.80;26.60;;;;;;5074971;28;20502;-43
2022/08/11 14:03:14;;;;;;;3.90;3.60;;;35.70;26.40;;;;;;5074704;28;20520;-41
2022/08/11 14:05:43;;;;;;;3.60;3.30;;;35.40;26.90;;;;;;5075350;28;20431;-41
2022/08/11 14:08:12;;;;;;;3.57;3.27;;;35.40;27.20;;;;;;5075439;28;20531;-42
2022/08/11 14:10:38;;;;;;;5.93;3.23;;;35.40;26.50;;;;;;5069968;28;20391;-44
2022/08/11 14:15:56;;;;;;;3.63;3.00;;;34.40;26.90;;;;;;5063595;28;20463;-44
2022/08/11 14:18:25;;;;;;;3.53;2.90;;;34.10;27.20;;;;;;5069823;28;20420;-42
2022/08/11 14:23:42;;;;;;;3.40;3.10;;;33.20;27.60;;;;;;5059076;28;20451;-41
2022/08/11 14:26:27;;;;;;;4.40;3.43;;;33.60;28.30;;;;;;5059596;28;20469;-43
2022/08/11 14:28:54;;;;;;;4.07;2.80;;;34.50;28.00;;;;;;5060421;28;20402;-43
2022/08/11 14:31:24;;;;;;;7.00;3.50;;;35.30;27.70;;;;;;5060424;28;20392;-42
2022/08/11 14:33:53;;;;;;;5.77;3.57;;;35.70;26.30;;;;;;5069974;28;20411;-44
2022/08/11 14:36:20;;;;;;;3.27;3.00;;;35.60;26.20;;;;;;5079838;28;20570;-43
2022/08/11 14:38:47;;;;;;;3.30;3.00;;;35.70;26.30;;;;;;5076761;28;20412;-43
2022/08/11 14:49:28;;;;;;;3.20;2.90;;;36.80;26.70;;;;;;5079697;28;20478;-41
2022/08/11 14:51:55;;;;;;;2.77;2.57;;;36.00;25.80;;;;;;5077326;28;20403;-42
2022/08/11 14:57:08;;;;;;;2.80;2.60;;;35.10;26.70;;;;;;5078432;28;20475;-42
2022/08/11 14:59:35;;;;;;;4.83;2.87;;;35.00;26.60;;;;;;5079075;28;20836;-41
2022/08/11 15:04:46;;;;;;;2.87;2.63;;;34.30;27.60;;;;;;5078299;28;20416;-41
2022/08/11 15:07:12;;;;;;;3.20;3.00;;;34.90;27.80;;;;;;5079379;28;20395;-44
2022/08/11 15:09:42;;;;;;;6.93;2.80;;;35.60;27.30;;;;;;5078762;28;20576;-41
2022/08/11 15:12:17;;;;;;;3.23;3.03;;;36.30;27.20;;;;;;5078768;28;20551;-43
2022/08/11 15:17:32;;;;;;;3.53;3.20;;;37.60;26.30;;;;;;5076115;28;20460;-41
2022/08/11 15:25:33;;;;;;;3.07;2.63;;;37.50;26.00;;;;;;5076669;28;20465;-42
2022/08/11 15:39:02;;;;;;;3.23;2.97;;;37.10;26.30;;;;;;5076334;28;20447;-42
2022/08/11 15:47:16;;;;;;;3.80;3.10;;;36.90;25.60;;;;;;5076881;28;20481;-41
2022/08/11 15:49:44;;;;;;;3.90;3.17;;;36.10;25.70;;;;;;5076324;28;20494;-41
2022/08/11 15:52:18;;;;;;;3.90;3.03;;;34.90;26.20;;;;;;5076809;28;20427;-41
2022/08/11 15:54:45;;;;;;;2.93;2.40;;;34.00;26.80;;;;;;5078119;28;20596;-42
2022/08/11 16:04:10;;;;;;;2.93;2.63;;;33.60;27.10;;;;;;5076147;28;20447;-43
2022/08/11 16:05:16;;;;;;;3.70;3.40;;;32.60;27.60;;;;;;5077848;28;20414;-42
2022/08/11 16:07:48;;;;;;;3.60;3.30;;;32.10;27.90;;;;;;5077051;28;20396;-42
2022/08/11 16:10:20;;;;;;;3.90;3.60;;;32.00;28.30;;;;;;5077313;28;20459;-41
2022/08/11 16:18:39;;;;;;;3.00;2.70;;;31.50;28.30;;;;;;5073713;28;20444;-42
2022/08/11 16:21:07;;;;;;;3.70;3.17;;;31.60;28.90;;;;;;5074003;28;20391;-42
2022/08/11 16:23:33;;;;;;;3.17;2.97;;;31.90;28.40;;;;;;5075193;28;20829;-41
2022/08/11 16:26:00;;;;;;;4.00;3.60;;;32.30;28.40;;;;;;5074824;28;20444;-41
2022/08/11 16:28:27;;;;;;;4.87;3.60;;;32.50;28.50;;;;;;5076875;28;20446;-43
2022/08/11 16:30:53;;;;;;;3.33;3.03;;;32.70;28.40;;;;;;5075670;28;20743;-43
2022/08/11 16:33:23;;;;;;;3.30;3.00;;;33.00;27.70;;;;;;5072767;28;20432;-44
2022/08/11 16:38:34;;;;;;;3.40;3.07;;;33.30;27.40;;;;;;5072389;28;20426;-44
2022/08/11 16:41:09;;;;;;;3.70;3.40;;;33.30;27.50;;;;;;5072904;28;20536;-43
2022/08/11 16:49:20;;;;;;;3.93;3.47;;;33.10;28.00;;;;;;5074393;28;20462;-42
2022/08/11 16:51:46;;;;;;;3.23;2.93;;;33.10;27.90;;;;;;5074345;28;20436;-42
2022/08/11 16:54:12;;;;;;;3.60;3.30;;;32.80;27.70;;;;;;5073772;28;20584;-41
2022/08/11 16:56:49;;;;;;;3.23;3.03;;;32.30;28.10;;;;;;5073069;28;20687;-43
2022/08/11 16:59:21;;;;;;;7.27;3.20;;;31.80;28.40;;;;;;5073460;28;20674;-43
2022/08/11 17:01:51;;;;;;;4.20;3.03;;;31.20;28.90;;;;;;5072113;28;20400;-40
2022/08/11 17:13:32;;;;;;;3.27;2.70;;;29.40;29.90;;;;;;5074177;28;20555;-42
2022/08/11 17:16:08;;;;;;;3.97;3.20;;;29.20;30.30;;;;;;5074098;28;20474;-43
2022/08/11 17:18:49;;;;;;;3.80;3.07;;;29.10;30.20;;;;;;5076303;28;20424;-43
2022/08/11 17:21:21;;;;;;;4.27;2.87;;;29.10;30.30;;;;;;5075781;28;20792;-43
2022/08/11 17:23:51;;;;;;;3.33;3.03;;;29.00;30.20;;;;;;5076283;28;20424;-41
2022/08/11 17:26:22;;;;;;;3.13;2.80;;;28.90;30.20;;;;;;5076322;28;20436;-42
2022/08/11 17:28:55;;;;;;;4.20;3.17;;;28.90;30.40;;;;;;5075139;28;20837;-43
2022/08/11 17:37:04;;;;;;;3.07;2.77;;;28.80;30.70;;;;;;5041543;28;20472;-41
2022/08/11 17:39:30;;;;;;;2.97;2.77;;;28.70;30.80;;;;;;5074965;28;20489;-41
2022/08/11 17:50:12;;;;;;;3.70;3.33;;;28.30;30.90;;;;;;5074208;28;20437;-42
2022/08/11 18:00:54;;;;;;;5.93;2.87;;;27.70;31.60;;;;;;5079199;28;20826;-41
2022/08/11 18:03:31;;;;;;;3.37;3.07;;;27.60;31.80;;;;;;5077580;28;20485;-47
2022/08/11 18:06:00;;;;;;;6.53;2.60;;;27.60;32.00;;;;;;5078083;28;20846;-47
